Tiempo atmosférico en la estación meteorológica de Fuente De Piedra, Málaga (423 m.)



Fecha
DESCASC
Temp. máxima en grados centígrados (hora)
DESCASC
Temp. mínima en grados centígrados (hora)
DESCASC
Temp. media en grados centígrados
DESCASC
Racha de viento máxima en m/sg (hora)
DESCASC
Velocidad máxima media en intervalos de 10 minutos(hora)
DESCASC
Precipitaciones diarias en mm
DESCASC
Precipitaciones de 00:00 a 06:00 en mm
DESCASC
Precipitaciones de 06:00 a 12:00 en mm
DESCASC
Precipitaciones de 12:00 a 18:00 en mm
DESCASC
Precipitaciones de 18:00 a 24:00 en mm
DESCASC
22-11-2020 17.7 (14:10) 9.5 (23:30) 13.6 11.39 (03:00) 7.78 (11:30) 0 0 0 0 0
21-11-2020 18.6 (13:20) 12.6 (21:20) 15.6 13.33 (15:10) 8.89 (12:40) 0 0 0 0 0
20-11-2020 23.1 (16:10) 9.2 (06:30) 16.2 5 (05:00) 3.06 (05:00) 0 0 0 0 0
19-11-2020 20.8 (15:00) 8.3 (00:00) 14.5 9.17 (11:20) 6.11 (15:20) 0 0 0 0 0
18-11-2020 21 (14:20) 10 (00:00) 15.5 7.78 (14:30) 5.28 (15:00) 0.2 0 0.2 0 0
17-11-2020 25.1 (16:10) 9.3 (00:00) 17.2 4.72 (16:50) 3.33 (17:00) 0.2 0 0.2 0 0
16-11-2020 22.7 (15:00) 10.8 (00:00) 16.8 6.11 (16:30) 4.17 (16:20) 0 0 0 0 0
15-11-2020 24.7 (16:30) 9.5 (00:00) 17.1 3.33 (17:20) 2.5 (18:30) 0.2 0.2 0 0 0
14-11-2020 18 (15:40) 12.6 (00:00) 15.3 8.06 (12:20) 5.28 (12:20) 0.8 0 0.2 0.6 0
13-11-2020 21.6 (14:30) 11.6 (00:00) 16.6 7.22 (02:30) 5 (01:30) 0 0 0 0 0
12-11-2020 19.9 (14:00) 11.6 (00:00) 15.8 11.39 (13:40) 8.06 (12:30) 0 0 0 0 0
11-11-2020 19.4 (14:50) 10.8 (00:00) 15.1 11.11 (11:40) 8.06 (11:50) 0 0 0 0 0
10-11-2020 21.3 (16:30) 6.7 (00:00) 14 4.44 (18:50) 3.33 (19:00) 0.2 0.2 0 0 0
09-11-2020 18.8 (15:00) 6.8 (00:00) 12.8 5.28 (16:20) 3.33 (15:10) 0 0 0 0 0
08-11-2020 21 (14:40) 7.1 (00:00) 14 8.33 (14:00) 5.83 (16:00) 0.2 0 0.2 0 0
07-11-2020 19.7 (16:20) 11.1 (00:00) 15.4 10 (00:10) 6.11 (00:10) 1.8 1.2 0.6 0 0
06-11-2020 26.3 (15:10) 11.3 (00:00) 18.8 12.78 (15:30) 8.61 (23:20) 2.2 0 0 0 2.2
05-11-2020 18.7 (12:20) 13.3 (00:00) 16 17.5 (04:40) 11.39 (04:10) 28.6 15.6 13 0 0
04-11-2020 17.9 (14:40) 13.3 (00:00) 15.6 10.28 (06:50) 6.94 (06:50) 3.6 0 2.2 1 0.4
03-11-2020 25.5 (14:00) 6.6 (00:00) 16 6.39 (14:30) 4.44 (16:10) 0 0 0 0 0
02-11-2020 27.8 (15:10) 7.4 (00:00) 17.6 7.78 (13:20) 5.28 (13:40) 0 0 0 0 0
01-11-2020 27.4 (16:20) 7.8 (00:00) 17.6 3.33 (18:20) 2.22 (18:00) 0 0 0 0 0
31-10-2020 26.3 (17:10) 8.8 (00:00) 17.5 5.83 (17:40) 3.89 (17:40) 0 0 0 0 0
30-10-2020 24.2 (15:30) 10.6 (00:00) 17.4 10.28 (12:40) 7.5 (12:20) 0 0 0 0 0
29-10-2020 24.9 (14:10) 6.4 (00:00) 15.6 9.72 (19:20) 6.67 (19:10) 0 0 0 0 0
28-10-2020 21.1 (14:40) 4.7 (00:00) 12.9 5.83 (16:10) 3.61 (16:30) 0 0 0 0 0
27-10-2020 17.7 (16:10) 2.9 (00:00) 10.3 6.67 (17:10) 4.17 (17:10) 0 0 0 0 0

Gráficas

Temp. máximas Temp. mínimas Temp. medias Precipitaciones Rachas de viento máximas Velocidades máximas media en intervalos de 10 minutos

Datos horarios

Fecha y hora oficial Temperatura (ºC) Velocidad del viento (km/h) Dirección del viento Racha (km/h) Dirección de racha Precipitación (mm) Presión (hPa) Tendencia (hPa) Humedad (%)
2020-11-25 23:00:00 10.5 2 Sur 5 Sudoeste 2.2 -- -- 94
2020-11-25 22:00:00 10.2 2 Sudeste 6 Norte 0 -- -- 94
2020-11-25 21:00:00 10.1 3 Nordeste 16 Sudeste 0 -- -- 93
2020-11-25 20:00:00 10.2 6 Sudeste 18 Este 0.2 -- -- 93
2020-11-25 19:00:00 10.7 10 Sudeste 18 Sudoeste 4.4 -- -- 93
2020-11-25 18:00:00 11.2 17 Oeste 30 Oeste 7.8 -- -- 90
2020-11-25 17:00:00 12.8 3 Norte 8 Norte 0.4 -- -- 82
2020-11-25 16:00:00 13.2 2 Nordeste 27 Oeste 0 -- -- 76
2020-11-25 15:00:00 14.9 12 Sudoeste 31 Sur 0 -- -- 67
2020-11-25 14:00:00 16.9 19 Sur 39 Sur 0 -- -- 66
2020-11-25 13:00:00 17.7 24 Sur 37 Sudeste 0 -- -- 64
2020-11-25 12:00:00 16.8 23 Sur 37 Sur 0 -- -- 70
2020-11-25 11:00:00 15.2 22 Sur 33 Sur 0 -- -- 75
2020-11-25 10:00:00 9.6 0 Calma 4 Noroeste 0 -- -- 96
2020-11-25 09:00:00 6.8 3 Noroeste 4 Noroeste 0 -- -- 94
2020-11-25 08:00:00 6.8 0 Calma 4 Norte 0 -- -- 93
2020-11-25 07:00:00 7.4 4 Norte 5 Sudoeste 0 -- -- 92
2020-11-25 06:00:00 9.8 4 Sudoeste 6 Oeste 0 -- -- 92
2020-11-25 05:00:00 9.4 2 Sudoeste 6 Sur 0 -- -- 91
2020-11-25 04:00:00 -- -- -- -- -- 0 -- -- --
2020-11-25 03:00:00 10 8 Sudeste 10 Sudeste 0 -- -- 91
2020-11-25 02:00:00 9.4 4 Oeste 9 Sur 0 -- -- 89
2020-11-25 01:00:00 10 3 Sur 8 Sur 0 -- -- 85
2020-11-25 00:00:00 10.5 3 Oeste 10 Sudoeste 0 -- -- 86
2020-11-24 23:00:00 10.6 9 Sudoeste 13 Sur 0 -- -- 84
2020-11-24 22:00:00 11.5 8 Sur 11 Sur 0 -- -- 80
2020-11-24 21:00:00 11.3 3 Nordeste 10 Sudeste 0 -- -- 77
2020-11-24 20:00:00 13 3 Sudeste 8 Oeste 0 -- -- 73
2020-11-24 19:00:00 13.7 3 Sur 8 Sur 0 -- -- 69
2020-11-24 18:00:00 15.2 7 Sur 17 Sudeste 0 -- -- 62
2020-11-24 17:00:00 17.5 10 Sur 19 Sur 0 -- -- 54
2020-11-24 16:00:00 18.3 10 Sudeste 17 Sur 0 -- -- 51
2020-11-24 15:00:00 18.4 8 Sudeste 21 Sur 0 -- -- 49
2020-11-24 14:00:00 18.1 12 Sur 22 Sur 0 -- -- 49
2020-11-24 13:00:00 17.6 11 Sur 22 Sur 0 -- -- 52
2020-11-24 12:00:00 16.6 14 Sur 24 Sur 0 -- -- 56
2020-11-24 11:00:00 14.5 9 Sudoeste 18 Sur 0 -- -- 66
2020-11-24 10:00:00 13.3 15 Sur 22 Sur 0 -- -- 70
2020-11-24 09:00:00 10.1 5 Sudoeste 13 Sur 0 -- -- 82
2020-11-24 08:00:00 8.6 8 Sudoeste 17 Sur 0 -- -- 85
2020-11-24 07:00:00 8.9 3 Oeste 22 Sur 0 -- -- 82
2020-11-24 06:00:00 10.1 15 Sur 26 Sur 0 -- -- 81
2020-11-24 05:00:00 10.3 15 Sur 31 Sur 0 -- -- 80
2020-11-24 04:00:00 -- -- -- -- -- 0 -- -- --
2020-11-24 03:00:00 10.7 22 Sur 37 Sur 0 -- -- 78
2020-11-24 02:00:00 10.5 16 Sur 31 Sur 0 -- -- 77
2020-11-24 01:00:00 10.4 16 Sur 27 Sur 0 -- -- 78
2020-11-24 00:00:00 10.1 9 Sur 21 Sur 0 -- -- 80
2020-11-23 23:00:00 9.7 9 Sur 16 Sur 0 -- -- 81
2020-11-23 22:00:00 10.3 11 Sur 21 Sur 0 -- -- 78
2020-11-23 21:00:00 10.6 9 Sur 31 Sur 0 -- -- 78
2020-11-23 20:00:00 11.4 22 Sur 35 Sur 0 -- -- 76
2020-11-23 19:00:00 11.9 21 Sur 33 Sur 0 -- -- 72
2020-11-23 18:00:00 13.1 19 Sur 34 Sur 0 -- -- 65
2020-11-23 17:00:00 15.2 20 Sur 35 Sur 0 -- -- 54
2020-11-23 16:00:00 16.3 24 Sur 41 Sur 0 -- -- 49
2020-11-23 15:00:00 16.8 24 Sur 42 Sur 0 -- -- 46
2020-11-23 14:00:00 16.5 27 Sur 46 Sur 0 -- -- 49
2020-11-23 13:00:00 16.4 25 Sur 47 Sur 0 -- -- 52
2020-11-23 12:00:00 15.3 30 Sur 45 Sur 0 -- -- 56
2020-11-23 11:00:00 14.3 26 Sur 44 Sur 0 -- -- 59
2020-11-23 10:00:00 12.5 13 Sudeste 27 Sudeste 0 -- -- 62
2020-11-23 09:00:00 10.9 15 Sudeste 21 Sudeste 0 -- -- 71
2020-11-23 08:00:00 8.2 7 Este 25 Sudeste 0 -- -- 73
2020-11-23 07:00:00 7.1 8 Sudeste 15 Sudeste 0 -- -- 79
2020-11-23 06:00:00 7.7 8 Sudeste 15 Sudeste 0 -- -- 83
2020-11-23 05:00:00 7.7 9 Sudeste 17 Sur 0 -- -- 84
2020-11-23 04:00:00 -- -- -- -- -- 0 -- -- --
2020-11-23 03:00:00 7.9 6 Sur 10 Sur 0 -- -- 82
2020-11-23 02:00:00 8.2 8 Sudeste 12 Sudeste 0 -- -- 81
2020-11-23 01:00:00 8 3 Sur 12 Sudeste 0 -- -- 74
2020-11-23 00:00:00 9.5 10 Sur 15 Sur 0 -- -- 76
2020-11-22 23:00:00 10.1 6 Sudeste 16 Sudeste 0 -- -- 73
2020-11-22 22:00:00 10.6 12 Sudeste 21 Sudeste 0 -- -- 71
2020-11-22 21:00:00 10.3 8 Sudeste 15 Sur 0 -- -- 73
2020-11-22 20:00:00 11.5 14 Sur 26 Sur 0 -- -- 68
2020-11-22 19:00:00 11.9 12 Sur 23 Sur 0 -- -- 66
2020-11-22 18:00:00 13.6 16 Sur 31 Sur 0 -- -- 61
2020-11-22 17:00:00 15.6 21 Sur 36 Sur 0 -- -- 54
2020-11-22 16:00:00 16.9 20 Sur 31 Sur 0 -- -- 49
2020-11-22 15:00:00 17.6 20 Sur 35 Sur 0 -- -- 47
2020-11-22 14:00:00 17.6 22 Sur 36 Sur 0 -- -- 46
2020-11-22 13:00:00 17 24 Sur 36 Sur 0 -- -- 47
2020-11-22 12:00:00 16.7 22 Sur 37 Sur 0 -- -- 49
2020-11-22 11:00:00 16 19 Sudeste 37 Sudeste 0 -- -- 53
2020-11-22 10:00:00 13.7 10 Este 24 Este 0 -- -- 59
2020-11-22 09:00:00 11.7 8 Este 23 Sur 0 -- -- 67
2020-11-22 08:00:00 12 15 Sudeste 30 Sudeste 0 -- -- 66
2020-11-22 07:00:00 12 15 Sudeste 38 Sudeste 0 -- -- 65
2020-11-22 06:00:00 11.6 13 Sudeste 26 Sudeste 0 -- -- 66
2020-11-22 05:00:00 10.9 8 Sudeste 39 Sur 0 -- -- 71
2020-11-22 04:00:00 -- -- -- -- -- 0 -- -- --
2020-11-22 03:00:00 12.5 21 Sudeste 41 Sudeste 0 -- -- 69
2020-11-22 02:00:00 12.4 18 Sudeste 36 Sudeste 0 -- -- 76
2020-11-22 01:00:00 12.8 22 Sudeste 37 Sudeste 0 -- -- 77
2020-11-22 00:00:00 12.8 21 Sudeste 35 Sur 0 -- -- 78
2020-11-21 23:00:00 12.8 15 Sur 28 Sudeste 0 -- -- 80
2020-11-21 22:00:00 12.8 17 Sur 31 Sudeste 0 -- -- 82
2020-11-21 21:00:00 12.8 14 Sur 30 Sudeste 0 -- -- 74
2020-11-21 20:00:00 13.1 15 Sudeste 31 Sudeste 0 -- -- 74
2020-11-21 19:00:00 13.6 15 Sudeste 36 Sur 0 -- -- 75
2020-11-21 18:00:00 14.8 21 Sur 40 Sur 0 -- -- 67
2020-11-21 17:00:00 16.8 25 Sur 42 Sur 0 -- -- 58
2020-11-21 16:00:00 17.7 27 Sur 48 Sur 0 -- -- 55
2020-11-21 15:00:00 18.2 29 Sudeste 46 Sur 0 -- -- 53
2020-11-21 14:00:00 18.4 31 Sur 44 Sur 0 -- -- 52
2020-11-21 13:00:00 18.2 28 Sur 44 Sur 0 -- -- 55
2020-11-21 12:00:00 18.5 21 Sur 39 Sur 0 -- -- 57
2020-11-21 11:00:00 17.4 21 Sur 32 Sur 0 -- -- 64
2020-11-21 10:00:00 16.2 16 Sur 28 Sur 0 -- -- 72
2020-11-21 09:00:00 13.9 0 Calma 22 Sudeste 0 -- -- 83
2020-11-21 08:00:00 13.2 15 Sur 25 Sudeste 0 -- -- 88
2020-11-21 07:00:00 13.4 16 Sur 35 Sur 0 -- -- 87
2020-11-21 06:00:00 13.3 17 Sur 37 Sur 0 -- -- 87
2020-11-21 05:00:00 13.4 26 Sur 40 Sur 0 -- -- 88
2020-11-21 04:00:00 -- -- -- -- -- 0 -- -- --
2020-11-21 03:00:00 13.2 17 Sur 31 Sur 0 -- -- 86
2020-11-21 02:00:00 13.5 20 Sur 35 Sur 0 -- -- 84
2020-11-21 01:00:00 13.5 15 Sur 28 Sur 0 -- -- 83
2020-11-21 00:00:00 12.8 9 Sudoeste 15 Sudoeste 0 -- -- 87
2020-11-20 23:00:00 12.6 7 Sur 17 Sur 0 -- -- 87
2020-11-20 22:00:00 12.7 6 Oeste 10 Sudoeste 0 -- -- 85
2020-11-20 21:00:00 13.1 7 Sudoeste 12 Sudoeste 0 -- -- 81
2020-11-20 20:00:00 14.3 9 Sudoeste 13 Sur 0 -- -- 78
2020-11-20 19:00:00 16.1 9 Sur 15 Sur 0 -- -- 70
2020-11-20 18:00:00 19.5 10 Sur 13 Sur 0 -- -- 58
2020-11-20 17:00:00 22.4 5 Sudoeste 13 Sudoeste 0 -- -- 47
2020-11-20 16:00:00 23 6 Sur 15 Sudeste 0 -- -- 41
2020-11-20 15:00:00 22.3 8 Este 16 Este 0 -- -- 43
2020-11-20 14:00:00 21.4 4 Sudeste 13 Este 0 -- -- 48
2020-11-20 13:00:00 20 4 Este 12 Nordeste 0 -- -- 57
2020-11-20 12:00:00 18.9 5 Sudoeste 13 Sur 0 -- -- 64
2020-11-20 11:00:00 17.6 8 Sudeste 13 Sudeste 0 -- -- 69
2020-11-20 10:00:00 12.8 2 Oeste 8 Oeste 0 -- -- 87
2020-11-20 09:00:00 10.7 5 Sudoeste 10 Sur 0 -- -- 91
2020-11-20 08:00:00 9.6 5 Sur 9 Sur 0 -- -- 93
2020-11-20 07:00:00 10.1 3 Noroeste 8 Noroeste 0 -- -- 92
2020-11-20 06:00:00 10.8 4 Sudoeste 16 Sur 0 -- -- 88
2020-11-20 05:00:00 11.5 11 Sur 18 Sudeste 0 -- -- 89
2020-11-20 04:00:00 -- -- -- -- -- 0 -- -- --
2020-11-20 03:00:00 11.1 7 Sudoeste 13 Sur 0 -- -- 92
2020-11-20 02:00:00 11.1 4 Sudoeste 17 Sur 0 -- -- 92
2020-11-20 01:00:00 10.9 9 Sur 14 Sur 0 -- -- 91
2020-11-20 00:00:00 11.9 4 Sudoeste 9 Sur 0 -- -- 90
2020-11-19 23:00:00 12.3 5 Sur 12 Sudoeste 0 -- -- 87
2020-11-19 22:00:00 13.3 12 Sudoeste 18 Sur 0 -- -- 86
2020-11-19 21:00:00 13.6 12 Sudoeste 16 Sudoeste 0 -- -- 85
2020-11-19 20:00:00 14 9 Sudoeste 16 Sur 0 -- -- 84
2020-11-19 19:00:00 14.9 12 Sur 22 Sudoeste 0 -- -- 79
2020-11-19 18:00:00 16.6 16 Sur 26 Sur 0 -- -- 74
2020-11-19 17:00:00 19.1 17 Sur 28 Sur 0 -- -- 65
2020-11-19 16:00:00 20.5 18 Sur 32 Sur 0 -- -- 60
2020-11-19 15:00:00 20.8 18 Sur 32 Sur 0 -- -- 59
2020-11-19 14:00:00 20.3 20 Sur 31 Sur 0 -- -- 62
2020-11-19 13:00:00 19.6 21 Sur 31 Sur 0 -- -- 63
2020-11-19 12:00:00 18.8 19 Sur 33 Sur 0 -- -- 67
2020-11-19 11:00:00 17.4 18 Sur 27 Sur 0 -- -- 76
2020-11-19 10:00:00 13.7 4 Sur 7 Sur 0 -- -- 97
2020-11-19 09:00:00 11.1 4 Sur 8 Sudoeste 0 -- -- 97
2020-11-19 08:00:00 9.5 5 Sudoeste 7 Sudoeste 0 -- -- 97
2020-11-19 07:00:00 8.6 3 Sur 4 Sudeste 0 -- -- 95
2020-11-19 06:00:00 9.8 4 Sudeste 6 Oeste 0 -- -- 94
2020-11-19 05:00:00 10.8 3 Oeste 8 Sudoeste 0 -- -- 95
2020-11-19 04:00:00 -- -- -- -- -- 0 -- -- --
2020-11-19 03:00:00 10.8 4 Oeste 8 Sudoeste 0 -- -- 95
2020-11-19 02:00:00 11.4 8 Sudoeste 10 Sudoeste 0 -- -- 94
2020-11-19 01:00:00 12.1 6 Sudoeste 12 Sudoeste 0 -- -- 94
2020-11-19 00:00:00 12 6 Sur 8 Sur 0 -- -- 93
2020-11-18 23:00:00 12.6 5 Sur 10 Sudoeste 0 -- -- 92
2020-11-18 22:00:00 13.1 5 Sur 9 Sudoeste 0 -- -- 90
2020-11-18 21:00:00 13.5 6 Sur 11 Sur 0 -- -- 89
2020-11-18 20:00:00 14.6 7 Sudoeste 13 Sur 0 -- -- 85
2020-11-18 19:00:00 15.8 7 Sur 17 Sur 0 -- -- 80
2020-11-18 18:00:00 17.8 12 Sur 21 Sur 0 -- -- 72
2020-11-18 17:00:00 19.8 15 Sur 22 Sur 0 -- -- 63
2020-11-18 16:00:00 20.7 14 Sur 26 Sur 0 -- -- 60
2020-11-18 15:00:00 20.9 19 Sur 28 Sur 0 -- -- 60
2020-11-18 14:00:00 20.9 15 Sur 26 Sur 0 -- -- 61
2020-11-18 13:00:00 20.3 14 Sur 25 Sur 0 -- -- 64
2020-11-18 12:00:00 19.1 19 Sur 26 Sur 0 -- -- 69
2020-11-18 11:00:00 17.2 15 Sur 22 Sudoeste 0 -- -- 84
2020-11-18 10:00:00 14.1 5 Sudoeste 10 Sudoeste 0 -- -- 97
2020-11-18 09:00:00 11.9 5 Sudoeste 9 Sudoeste 0 -- -- 97
2020-11-18 08:00:00 12.2 3 Sudoeste 10 Sudoeste 0 -- -- 96
2020-11-18 07:00:00 11.8 5 Sudoeste 8 Sudoeste 0.2 -- -- 96
2020-11-18 06:00:00 10 5 Sur 11 Sur 0 -- -- 95
2020-11-18 05:00:00 10.2 8 Sudoeste 10 Sudoeste 0 -- -- 95
2020-11-18 04:00:00 -- -- -- -- -- 0 -- -- --
2020-11-18 03:00:00 11.3 3 Sur 5 Sur 0 -- -- 94
2020-11-18 02:00:00 11.2 2 Sudoeste 5 Sudoeste 0 -- -- 93
2020-11-18 01:00:00 10.8 0 Calma 3 Sudoeste 0 -- -- 91
2020-11-18 00:00:00 12.1 0 Calma 5 Sudoeste 0 -- -- 91
2020-11-17 23:00:00 12.7 4 Sur 6 Este 0 -- -- 87
2020-11-17 22:00:00 14.3 4 Sudeste 5 Sudoeste 0 -- -- 86
2020-11-17 21:00:00 15.1 0 Calma 6 Sur 0 -- -- 79
2020-11-17 20:00:00 16.8 2 Sudoeste 8 Norte 0 -- -- 72
2020-11-17 19:00:00 18.7 4 Norte 5 Norte 0 -- -- 65
2020-11-17 18:00:00 21 5 Noroeste 14 Noroeste 0 -- -- 60
2020-11-17 17:00:00 23.8 12 Noroeste 17 Oeste 0 -- -- 45
2020-11-17 16:00:00 25 5 Sudoeste 12 Oeste 0 -- -- 41
2020-11-17 15:00:00 24.5 6 Sudoeste 11 Sudoeste 0 -- -- 43
2020-11-17 14:00:00 23.1 9 Sudoeste 14 Sudoeste 0 -- -- 50
2020-11-17 13:00:00 20.8 5 Sudoeste 8 Sudoeste 0 -- -- 66
2020-11-17 12:00:00 18 4 Sudoeste 6 Sudoeste 0 -- -- 74
2020-11-17 11:00:00 13.5 0 Calma 5 Sur 0 -- -- 97
2020-11-17 10:00:00 11.1 2 Sudoeste 5 Sudoeste 0 -- -- 97
2020-11-17 09:00:00 9.9 2 Sur 5 Sur 0 -- -- 97
2020-11-17 08:00:00 9.8 0 Calma 4 Sudoeste 0 -- -- 96
2020-11-17 07:00:00 10 0 Calma 4 Sur 0.2 -- -- 96
2020-11-17 06:00:00 9.5 3 Sudoeste 5 Sudoeste 0 -- -- 96
2020-11-17 05:00:00 10.2 0 Calma 6 Norte 0 -- -- 96
2020-11-17 04:00:00 -- -- -- -- -- 0 -- -- --
2020-11-17 03:00:00 10.5 0 Calma 3 Norte 0 -- -- 95
2020-11-17 02:00:00 10.9 2 Sur 7 Sur 0 -- -- 94
2020-11-17 01:00:00 12 3 Nordeste 6 Norte 0 -- -- 94
2020-11-17 00:00:00 12.6 0 Calma 9 Sur 0 -- -- 92
2020-11-16 23:00:00 13.3 5 Sur 9 Sur 0 -- -- 92
2020-11-16 22:00:00 14.2 3 Este 10 Norte 0 -- -- 92
2020-11-16 21:00:00 15.2 7 Norte 9 Nordeste 0 -- -- 91
2020-11-16 20:00:00 15.8 6 Norte 8 Nordeste 0 -- -- 87
2020-11-16 19:00:00 17.7 7 Nordeste 12 Nordeste 0 -- -- 83
2020-11-16 18:00:00 19.5 8 Norte 19 Noroeste 0 -- -- 71
2020-11-16 17:00:00 21.4 12 Noroeste 22 Noroeste 0 -- -- 61
2020-11-16 16:00:00 22.7 10 Noroeste 21 Oeste 0 -- -- 57
2020-11-16 15:00:00 22.7 9 Oeste 18 Oeste 0 -- -- 53
2020-11-16 14:00:00 22.3 8 Noroeste 17 Noroeste 0 -- -- 57
2020-11-16 13:00:00 21.2 6 Noroeste 20 Noroeste 0 -- -- 63
2020-11-16 12:00:00 20.3 14 Noroeste 22 Noroeste 0 -- -- 66
2020-11-16 11:00:00 16.5 3 Sudoeste 6 Sudoeste 0 -- -- 82
2020-11-16 10:00:00 14.1 2 Sudoeste 6 Oeste 0 -- -- 94
2020-11-16 09:00:00 11.2 2 Norte 6 Noroeste 0 -- -- 94
2020-11-16 08:00:00 10.9 4 Norte 9 Norte 0 -- -- 92
2020-11-16 07:00:00 11.5 5 Sudeste 10 Noroeste 0 -- -- 91
2020-11-16 06:00:00 13.3 6 Sudeste 10 Norte 0 -- -- 89
2020-11-16 05:00:00 14.2 8 Norte 17 Norte 0 -- -- 90
2020-11-16 04:00:00 12.2 7 Norte 12 Norte 0 -- -- 94
2020-11-16 03:00:00 12.8 2 Sur 4 Norte 0 -- -- 91
2020-11-16 02:00:00 13.5 0 Calma 6 Sur 0 -- -- 92
2020-11-16 01:00:00 14 4 Sudeste 7 Sudoeste 0 -- -- 91
2020-11-16 00:00:00 14.3 6 Sur 8 Sudoeste 0 -- -- 89
2020-11-15 23:00:00 15.2 5 Sur 6 Sur 0 -- -- 88
2020-11-15 22:00:00 16.3 2 Sudoeste 5 Sur 0 -- -- 84
2020-11-15 21:00:00 17.2 5 Sur 9 Sudoeste 0 -- -- 79
2020-11-15 20:00:00 18.3 6 Sudoeste 9 Sur 0 -- -- 75
2020-11-15 19:00:00 19.4 8 Sur 12 Sur 0 -- -- 69
2020-11-15 18:00:00 22.5 7 Sur 12 Sudoeste 0 -- -- 59
2020-11-15 17:00:00 24.6 5 Sudoeste 11 Sudoeste 0 -- -- 50
2020-11-15 16:00:00 24.5 6 Sur 11 Sudoeste 0 -- -- 51
2020-11-15 15:00:00 23.8 7 Sudoeste 12 Sudoeste 0 -- -- 56
2020-11-15 14:00:00 22.8 7 Sudoeste 12 Sudoeste 0 -- -- 62
2020-11-15 13:00:00 21.5 5 Sudoeste 9 Sudeste 0 -- -- 69
2020-11-15 12:00:00 18 5 Oeste 10 Sudeste 0 -- -- 81
2020-11-15 11:00:00 15.4 3 Sur 6 Sudoeste 0 -- -- 96
2020-11-15 10:00:00 12.1 4 Oeste 7 Oeste 0 -- -- 97
2020-11-15 09:00:00 10.8 3 Sudoeste 4 Sudoeste 0 -- -- 97
2020-11-15 08:00:00 10 2 Oeste 6 Sur 0 -- -- 96
2020-11-15 07:00:00 10.3 5 Sudeste 8 Sudeste 0 -- -- 96
2020-11-15 06:00:00 9.5 2 Sudeste 7 Sudoeste 0 -- -- 96
2020-11-15 05:00:00 10.2 0 Calma 4 Sudeste 0.2 -- -- 95
2020-11-15 04:00:00 10.1 0 Calma 7 Oeste 0 -- -- 95
2020-11-15 03:00:00 10.8 0 Calma 5 Nordeste 0 -- -- 95
2020-11-15 02:00:00 11.3 3 Norte 4 Sudeste 0 -- -- 95
2020-11-15 01:00:00 12.4 3 Este 5 Nordeste 0 -- -- 94
2020-11-15 00:00:00 12.6 4 Oeste 5 Noroeste 0 -- -- 93
2020-11-14 23:00:00 12.9 3 Nordeste 5 Nordeste 0 -- -- 92
2020-11-14 22:00:00 14.2 2 Este 7 Sudeste 0 -- -- 92
2020-11-14 21:00:00 14.5 4 Sur 7 Sur 0 -- -- 91
2020-11-14 20:00:00 15.5 5 Sudeste 10 Sudoeste 0 -- -- 87
2020-11-14 19:00:00 16.1 6 Sur 16 Sudoeste 0 -- -- 87
2020-11-14 18:00:00 16.9 8 Sur 18 Sudoeste 0 -- -- 83
2020-11-14 17:00:00 17.6 13 Sudoeste 18 Sudoeste 0 -- -- 81
2020-11-14 16:00:00 17.8 8 Sur 18 Sur 0 -- -- 80
2020-11-14 15:00:00 17 10 Sudeste 19 Sur 0 -- -- 88
2020-11-14 14:00:00 15.7 14 Sur 22 Sur 0.6 -- -- 92
2020-11-14 13:00:00 15.5 15 Sur 29 Sur 0 -- -- 87
2020-11-14 12:00:00 16 17 Sur 23 Sur 0.2 -- -- 84
2020-11-14 11:00:00 15.5 14 Sur 23 Sur 0 -- -- 85
2020-11-14 10:00:00 16.1 5 Sudoeste 13 Sur 0 -- -- 80
2020-11-14 09:00:00 15.3 8 Sur 15 Sur 0 -- -- 81
2020-11-14 08:00:00 14.5 4 Sur 6 Sudoeste 0 -- -- 85
2020-11-14 07:00:00 14.6 5 Sudoeste 9 Sudoeste 0 -- -- 84
2020-11-14 06:00:00 14.6 5 Sudoeste 9 Sudoeste 0 -- -- 83
2020-11-14 05:00:00 14.8 6 Sur 16 Sur 0 -- -- 81
2020-11-14 04:00:00 15.2 11 Sudoeste 15 Sudoeste 0 -- -- 81
2020-11-14 03:00:00 15.3 11 Sur 20 Sur 0 -- -- 81
2020-11-14 02:00:00 15.2 8 Sudoeste 17 Sur 0 -- -- 79
2020-11-14 01:00:00 15.3 12 Sur 19 Sur 0 -- -- 78
2020-11-14 00:00:00 15.2 6 Sudoeste 12 Sudoeste 0 -- -- 81
2020-11-13 23:00:00 15 8 Sur 12 Sur 0 -- -- 82
2020-11-13 22:00:00 15.5 4 Sur 8 Sur 0 -- -- 81
2020-11-13 21:00:00 16 6 Sur 9 Sudoeste 0 -- -- 78
2020-11-13 20:00:00 16.4 3 Sur 11 Sur 0 -- -- 77
2020-11-13 19:00:00 17 6 Sur 11 Sur 0 -- -- 76
2020-11-13 18:00:00 17.9 7 Sur 18 Sur 0 -- -- 71
2020-11-13 17:00:00 18.8 12 Sur 24 Sur 0 -- -- 65
2020-11-13 16:00:00 19.9 15 Sur 22 Sudeste 0 -- -- 59
2020-11-13 15:00:00 21.2 14 Sur 21 Sudoeste 0 -- -- 53
2020-11-13 14:00:00 21.5 8 Sur 16 Sur 0 -- -- 54
2020-11-13 13:00:00 20.4 7 Sur 16 Sudoeste 0 -- -- 56
2020-11-13 12:00:00 19 6 Sur 16 Sur 0 -- -- 65
2020-11-13 11:00:00 16.8 10 Sudoeste 24 Sur 0 -- -- 75
2020-11-13 10:00:00 13.4 3 Sur 6 Sur 0 -- -- 88
2020-11-13 09:00:00 13 4 Sur 8 Sudeste 0 -- -- 90
2020-11-13 08:00:00 12.1 3 Sur 12 Sur 0 -- -- 90
2020-11-13 07:00:00 12.5 6 Sudoeste 22 Sur 0 -- -- 87
2020-11-13 06:00:00 13.5 12 Sur 22 Sur 0 -- -- 87
2020-11-13 05:00:00 13.4 13 Sur 18 Sur 0 -- -- 89
2020-11-13 04:00:00 13.3 8 Sur 15 Sur 0 -- -- 89
2020-11-13 03:00:00 13.8 11 Sur 26 Sur 0 -- -- 87
2020-11-13 02:00:00 14 12 Sur 26 Sur 0 -- -- 86
2020-11-13 01:00:00 14 17 Sur 23 Sur 0 -- -- 87
2020-11-13 00:00:00 13.7 12 Sur 22 Sur 0 -- -- 86
2020-11-12 23:00:00 14.2 14 Sur 31 Sur 0 -- -- 83
2020-11-12 22:00:00 14.3 19 Sur 33 Sur 0 -- -- 81
2020-11-12 21:00:00 14.7 19 Sur 33 Sur 0 -- -- 73
2020-11-12 20:00:00 15 16 Sur 30 Sur 0 -- -- 73
2020-11-12 19:00:00 15.4 18 Sur 29 Sur 0 -- -- 69
2020-11-12 18:00:00 16 21 Sur 34 Sur 0 -- -- 68
2020-11-12 17:00:00 17.1 23 Sur 36 Sur 0 -- -- 59
2020-11-12 16:00:00 18.4 24 Sur 40 Sur 0 -- -- 55
2020-11-12 15:00:00 19.6 24 Sur 37 Sur 0 -- -- 50
2020-11-12 14:00:00 19.9 26 Sur 41 Sur 0 -- -- 53
2020-11-12 13:00:00 18.6 25 Sur 41 Sudeste 0 -- -- 60
2020-11-12 12:00:00 18.5 28 Sur 39 Sur 0 -- -- 57
2020-11-12 11:00:00 16.7 12 Sudeste 19 Este 0 -- -- 62
2020-11-12 10:00:00 13.6 2 Este 17 Sudeste 0 -- -- 81
2020-11-12 09:00:00 12.7 9 Sur 16 Sudeste 0 -- -- 86
2020-11-12 08:00:00 11.8 7 Sudeste 14 Sudeste 0 -- -- 90
2020-11-12 07:00:00 11.9 5 Sudeste 10 Sudeste 0 -- -- 89
2020-11-12 06:00:00 12.1 7 Sudeste 16 Sudeste 0 -- -- 89
2020-11-12 05:00:00 12.6 8 Sudeste 16 Sudeste 0 -- -- 88
2020-11-12 04:00:00 12.9 10 Sudeste 18 Sur 0 -- -- 88
2020-11-12 03:00:00 12.8 11 Sur 25 Sudeste 0 -- -- 90
2020-11-12 02:00:00 12.4 10 Sudeste 17 Sudeste 0 -- -- 91
2020-11-12 01:00:00 12.8 7 Sudeste 18 Sur 0 -- -- 90
2020-11-12 00:00:00 12.8 11 Sudeste 20 Sudeste 0 -- -- 90
2020-11-11 23:00:00 12.9 12 Sur 23 Sur 0 -- -- 88
2020-11-11 22:00:00 13.3 14 Sur 21 Sur 0 -- -- 84
2020-11-11 21:00:00 13.9 8 Sur 15 Sudoeste 0 -- -- 79
2020-11-11 20:00:00 14.1 0 Calma 18 Sur 0 -- -- 79
2020-11-11 19:00:00 14.4 10 Sur 19 Sur 0 -- -- 76
2020-11-11 18:00:00 15.6 12 Sur 30 Sur 0 -- -- 72
2020-11-11 17:00:00 17.6 21 Sur 31 Sur 0 -- -- 63
2020-11-11 16:00:00 19.1 20 Sur 37 Sur 0 -- -- 58
2020-11-11 15:00:00 19.3 25 Sur 38 Sur 0 -- -- 57
2020-11-11 14:00:00 18.9 24 Sur 37 Sur 0 -- -- 60
2020-11-11 13:00:00 18.8 25 Sur 40 Sur 0 -- -- 61
2020-11-11 12:00:00 18.2 27 Sur 40 Sur 0 -- -- 61
2020-11-11 11:00:00 17.2 22 Sur 34 Sur 0 -- -- 68
2020-11-11 10:00:00 16 14 Sudeste 24 Sudeste 0 -- -- 74
2020-11-11 09:00:00 13.6 14 Sudeste 22 Sudeste 0 -- -- 87
2020-11-11 08:00:00 11 5 Sudeste 12 Sur 0 -- -- 90
2020-11-11 07:00:00 10.8 6 Sudeste 12 Sudeste 0 -- -- 89
2020-11-11 06:00:00 11.8 8 Sur 12 Sur 0 -- -- 91
2020-11-11 05:00:00 12.4 7 Sudeste 20 Sur 0 -- -- 90
2020-11-11 04:00:00 12.9 14 Sur 19 Sudeste 0 -- -- 91
2020-11-11 03:00:00 13.2 11 Sur 24 Sur 0 -- -- 90
2020-11-11 02:00:00 12.6 8 Sur 26 Sur 0 -- -- 90
2020-11-11 01:00:00 12.9 18 Sur 27 Sur 0 -- -- 90
2020-11-11 00:00:00 11.5 3 Sur 10 Sudeste 0 -- -- 89
2020-11-10 23:00:00 12 0 Calma 4 Sur 0 -- -- 86
2020-11-10 22:00:00 12.8 3 Sudoeste 9 Sudoeste 0 -- -- 83
2020-11-10 21:00:00 13.4 7 Sudoeste 12 Sudoeste 0 -- -- 80
2020-11-10 20:00:00 14.3 5 Sur 13 Sur 0 -- -- 75
2020-11-10 19:00:00 16.1 12 Sur 16 Sudeste 0 -- -- 66
2020-11-10 18:00:00 18.9 6 Norte 12 Norte 0 -- -- 61
2020-11-10 17:00:00 21.1 6 Sudoeste 12 Sudoeste 0 -- -- 51
2020-11-10 16:00:00 20.9 3 Sudoeste 10 Sudoeste 0 -- -- 55
2020-11-10 15:00:00 20.2 6 Sudoeste 12 Oeste 0 -- -- 61
2020-11-10 14:00:00 19.1 6 Sudoeste 10 Sudoeste 0 -- -- 65
2020-11-10 13:00:00 16.9 4 Sudoeste 8 Oeste 0 -- -- 76
2020-11-10 12:00:00 13.3 5 Sudoeste 9 Sudoeste 0 -- -- 92
2020-11-10 11:00:00 10.9 3 Sur 5 Sudoeste 0 -- -- 97
2020-11-10 10:00:00 8 0 Calma 4 Sudoeste 0 -- -- 97
2020-11-10 09:00:00 7.1 0 Calma 3 Norte 0 -- -- 97
2020-11-10 08:00:00 7 0 Calma 4 Norte 0 -- -- 96
2020-11-10 07:00:00 7.2 0 Calma 3 Sudeste 0 -- -- 96
2020-11-10 06:00:00 7 0 Calma 3 Sur 0 -- -- 96
2020-11-10 05:00:00 7.1 0 Calma 0 Calma 0 -- -- 95
2020-11-10 04:00:00 7 0 Calma 2 Norte 0.2 -- -- 95
2020-11-10 03:00:00 7.4 0 Calma 3 Sur 0 -- -- 95
2020-11-10 02:00:00 7.8 0 Calma 3 Sudeste 0 -- -- 94
2020-11-10 01:00:00 8.2 0 Calma 4 Sur 0 -- -- 93
2020-11-10 00:00:00 8.8 0 Calma 5 Norte 0 -- -- 93
2020-11-09 23:00:00 9.4 0 Calma 4 Noroeste 0 -- -- 92
2020-11-09 22:00:00 11.1 0 Calma 6 Noroeste 0 -- -- 92
2020-11-09 21:00:00 11.9 4 Norte 8 Este 0 -- -- 89
2020-11-09 20:00:00 12.2 7 Noroeste 8 Norte 0 -- -- 87
2020-11-09 19:00:00 14.4 5 Norte 8 Norte 0 -- -- 82
2020-11-09 18:00:00 16.5 6 Norte 18 Norte 0 -- -- 72
2020-11-09 17:00:00 17.7 12 Norte 19 Norte 0 -- -- 71
2020-11-09 16:00:00 18.6 8 Noroeste 16 Noroeste 0 -- -- 66
2020-11-09 15:00:00 18.8 8 Norte 15 Norte 0 -- -- 66
2020-11-09 14:00:00 17.9 6 Noroeste 11 Noroeste 0 -- -- 70
2020-11-09 13:00:00 16.3 4 Nordeste 12 Este 0 -- -- 78
2020-11-09 12:00:00 14.8 2 Sur 7 Sudeste 0 -- -- 82
2020-11-09 11:00:00 13.3 4 Sudeste 11 Sur 0 -- -- 92
2020-11-09 10:00:00 11.5 3 Sur 7 Sudoeste 0 -- -- 92
2020-11-09 09:00:00 10.2 0 Calma 6 Noroeste 0 -- -- 96
2020-11-09 08:00:00 7.7 4 Este 6 Norte 0 -- -- 95
2020-11-09 07:00:00 7.3 2 Norte 4 Este 0 -- -- 93
2020-11-09 06:00:00 8 0 Calma 3 Sudeste 0 -- -- 93
2020-11-09 05:00:00 8.5 3 Sudeste 4 Sudeste 0 -- -- 92
2020-11-09 04:00:00 8.6 0 Calma 2 Este 0 -- -- 92
2020-11-09 03:00:00 9.2 0 Calma 2 Este 0 -- -- 92
2020-11-09 02:00:00 9.4 0 Calma 3 Noroeste 0 -- -- 90
2020-11-09 01:00:00 9.6 3 Norte -- -- 0 -- -- 87
2020-11-09 00:00:00 11.9 0 Calma 4 Noroeste 0 -- -- 84
2020-11-08 23:00:00 12.2 0 Calma 4 Sudoeste 0 -- -- 83
2020-11-08 22:00:00 13.3 4 Sur 8 Sur 0 -- -- 74
2020-11-08 21:00:00 14.2 8 Sur 15 Sudeste 0 -- -- 71
2020-11-08 20:00:00 14.5 13 Sudeste 15 Sur 0 -- -- 69
2020-11-08 19:00:00 15.7 10 Sur 15 Sur 0 -- -- 65
2020-11-08 18:00:00 17.6 11 Sur 23 Sudeste 0 -- -- 60
2020-11-08 17:00:00 19.7 16 Sur 30 Sur 0 -- -- 52
2020-11-08 16:00:00 20.6 21 Sudeste 30 Sur 0 -- -- 50
2020-11-08 15:00:00 20.9 13 Sur 28 Sudeste 0 -- -- 50
2020-11-08 14:00:00 19.8 20 Sur 30 Sudeste 0 -- -- 57
2020-11-08 13:00:00 20.1 13 Sur 21 Sur 0 -- -- 62
2020-11-08 12:00:00 17 5 Sudoeste 10 Sudoeste 0 -- -- 76
2020-11-08 11:00:00 12.9 3 Sur 6 Sudoeste 0 -- -- 95
2020-11-08 10:00:00 9.9 0 Calma 3 Oeste 0 -- -- 96
2020-11-08 09:00:00 8.3 0 Calma 5 Noroeste 0 -- -- 96
2020-11-08 08:00:00 7.1 3 Noroeste 4 Oeste 0.2 -- -- 95
2020-11-08 07:00:00 7.6 3 Sudeste 5 Sudoeste 0 -- -- 95
2020-11-08 06:00:00 7.6 3 Sudoeste 5 Oeste 0 -- -- 95
2020-11-08 05:00:00 7.9 0 Calma 6 Norte 0 -- -- 95
2020-11-08 04:00:00 8.5 2 Nordeste 4 Sur 0 -- -- 94
2020-11-08 03:00:00 8.9 3 Sur 6 Sur 0 -- -- 94
2020-11-08 02:00:00 10.4 3 Norte 4 Norte 0 -- -- 93
2020-11-08 01:00:00 10.7 0 Calma 6 Sur 0 -- -- 93
2020-11-08 00:00:00 11.1 4 Sur -- -- 0 -- -- 91
2020-11-07 23:00:00 12.3 2 Norte 4 Sudoeste 0 -- -- 91
2020-11-07 22:00:00 12.8 0 Calma 4 Norte 0 -- -- 90
2020-11-07 21:00:00 13.4 0 Calma 8 Nordeste 0 -- -- 86
2020-11-07 20:00:00 14.2 6 Nordeste 11 Nordeste 0 -- -- 83
2020-11-07 19:00:00 15.6 6 Norte 10 Nordeste 0 -- -- 78
2020-11-07 18:00:00 17.5 6 Norte 16 Norte 0 -- -- 71
2020-11-07 17:00:00 18.9 9 Noroeste 22 Noroeste 0 -- -- 65
2020-11-07 16:00:00 18.7 13 Oeste 22 Oeste 0 -- -- 60
2020-11-07 15:00:00 18.9 5 Sur 18 Oeste 0 -- -- 60
2020-11-07 14:00:00 18.9 8 Oeste 20 Sudoeste 0 -- -- 62
2020-11-07 13:00:00 18.8 12 Sudoeste 25 Sudoeste 0 -- -- 60
2020-11-07 12:00:00 18.3 14 Sudoeste 33 Sudoeste 0 -- -- 64
2020-11-07 11:00:00 17.4 9 Sudoeste 17 Sudoeste 0 -- -- 71
2020-11-07 10:00:00 15.3 9 Sur 15 Sur 0 -- -- 84
2020-11-07 09:00:00 13.7 11 Sudoeste 23 Oeste 0.6 -- -- 92
2020-11-07 08:00:00 13.7 6 Sudoeste 32 Sur 0 -- -- 87
2020-11-07 07:00:00 13.9 20 Sur 27 Sur 0 -- -- 91
2020-11-07 06:00:00 13.8 17 Sur 26 Sur 0 -- -- 90
2020-11-07 05:00:00 13.5 13 Sur 24 Sur 0.4 -- -- 91
2020-11-07 04:00:00 13.8 14 Sur 23 Sur 0.6 -- -- 89
2020-11-07 03:00:00 14.3 18 Sur 30 Sur 0.2 -- -- 83
2020-11-07 02:00:00 15.4 17 Sudeste 27 Sudeste 0 -- -- 72
2020-11-07 01:00:00 15.6 17 Sur 36 Sudeste 0 -- -- 72
2020-11-07 00:00:00 15.8 23 Sudeste 45 Sudeste 0 -- -- 72
2020-11-06 23:00:00 14.3 24 Sudeste 36 Sudoeste 1.6 -- -- 85
2020-11-06 22:00:00 15.3 3 Sur 28 Sudoeste 0.4 -- -- 81
2020-11-06 21:00:00 17.5 16 Sudoeste 37 Oeste 0.2 -- -- 64
2020-11-06 20:00:00 18.7 14 Sudoeste 31 Sudoeste 0 -- -- 58
2020-11-06 19:00:00 20.1 8 Sur 30 Sur 0 -- -- 48
2020-11-06 18:00:00 20.8 21 Sudoeste 41 Sudoeste 0 -- -- 52
2020-11-06 17:00:00 22.1 25 Sudoeste 35 Sur 0 -- -- 47
2020-11-06 16:00:00 24.4 24 Sur 46 Sur 0 -- -- 34
2020-11-06 15:00:00 26.1 28 Sur 41 Sur 0 -- -- 28
2020-11-06 14:00:00 26.1 25 Sur 37 Sur 0 -- -- 30
2020-11-06 13:00:00 24.4 21 Sudeste 42 Sur 0 -- -- 34
2020-11-06 12:00:00 23.7 20 Sur 31 Sudeste 0 -- -- 38
2020-11-06 11:00:00 21.1 18 Sur 30 Sudeste 0 -- -- 48
2020-11-06 10:00:00 21.2 23 Sur 37 Sur 0 -- -- 42
2020-11-06 09:00:00 19.1 26 Sur 37 Sudeste 0 -- -- 49
2020-11-06 08:00:00 18.2 19 Sur 37 Sudeste 0 -- -- 48
2020-11-06 07:00:00 17.8 26 Sur 34 Sur 0 -- -- 49
2020-11-06 06:00:00 11.8 8 Norte 13 Noroeste 0 -- -- 85
2020-11-06 05:00:00 12 0 Calma 8 Sudoeste 0 -- -- 85
2020-11-06 04:00:00 13.4 2 Este 16 Nordeste 0 -- -- 77
2020-11-06 03:00:00 13.4 8 Nordeste 12 Nordeste 0 -- -- 79
2020-11-06 02:00:00 13.1 5 Noroeste 8 Norte 0 -- -- 81
2020-11-06 01:00:00 13.9 2 Sudeste 11 Oeste 0 -- -- 79
2020-11-06 00:00:00 14.3 4 Sur 18 Sur 0 -- -- 75
2020-11-05 23:00:00 13.9 7 Sur 13 Sur 0 -- -- 80
2020-11-05 22:00:00 14.8 12 Sur 15 Sur 0 -- -- 75
2020-11-05 21:00:00 15.4 9 Sur 14 Sur 0 -- -- 74
2020-11-05 20:00:00 15.7 4 Sudeste 19 Sur 0 -- -- 72
2020-11-05 19:00:00 15.2 3 Sudeste 9 Sudeste 0 -- -- 81
2020-11-05 18:00:00 16.1 8 Sudeste 13 Sudeste 0 -- -- 77
2020-11-05 17:00:00 17.1 10 Este 17 Este 0 -- -- 74
2020-11-05 16:00:00 16.1 15 Nordeste 21 Nordeste 0 -- -- 81
2020-11-05 15:00:00 15.1 13 Norte 22 Norte 0 -- -- 88
2020-11-05 14:00:00 13.8 12 Norte 24 Noroeste 0 -- -- 89
2020-11-05 13:00:00 14.4 9 Noroeste 33 Sudeste 0 -- -- 84
2020-11-05 12:00:00 18.3 25 Sudeste 51 Sudeste 0 -- -- 63
2020-11-05 11:00:00 18 31 Sudeste 53 Este 0 -- -- 68
2020-11-05 10:00:00 16.4 20 Sudeste 37 Sudeste 0 -- -- 74
2020-11-05 09:00:00 14.9 15 Sudeste 31 Sur 2.4 -- -- 84
2020-11-05 08:00:00 13.9 5 Sur 35 Sur 5.2 -- -- 91
2020-11-05 07:00:00 14 20 Sudoeste 57 Sudeste 5.4 -- -- 90
2020-11-05 06:00:00 15.9 40 Sudeste 59 Sudeste 2.4 -- -- 72
2020-11-05 05:00:00 14.6 24 Sudeste 63 Sudeste 1.8 -- -- 82
2020-11-05 04:00:00 15.7 40 Sudeste 58 Sudeste 0 -- -- 73
2020-11-05 03:00:00 14.3 18 Sudeste 54 Sudeste 0.6 -- -- 85
2020-11-05 02:00:00 13.7 12 Este 46 Sudeste 6.8 -- -- 90
2020-11-05 01:00:00 13.8 18 Sudeste 30 Este 4 -- -- 91
2020-11-05 00:00:00 15.2 16 Este 32 Este 0 -- -- 75
2020-11-04 23:00:00 15.2 20 Sudeste 31 Sudeste 0 -- -- 74
2020-11-04 22:00:00 14.6 16 Sudeste 28 Sur 0 -- -- 85
2020-11-04 21:00:00 13.8 11 Sudeste 24 Sudeste 0 -- -- 87
2020-11-04 20:00:00 13.3 12 Sur 23 Sudeste 0 -- -- 88
2020-11-04 19:00:00 13.6 18 Sur 29 Sudeste 0.4 -- -- 90
2020-11-04 18:00:00 13.8 5 Sur 23 Sur 0.6 -- -- 91
2020-11-04 17:00:00 14.5 14 Sur 28 Sur 0.4 -- -- 86
2020-11-04 16:00:00 16.5 17 Sur 33 Sur 0 -- -- 70
2020-11-04 15:00:00 17.8 22 Sur 35 Sur 0 -- -- 67
2020-11-04 14:00:00 17 19 Sur 32 Sur 0 -- -- 73
2020-11-04 13:00:00 16.4 18 Sur 29 Sur 0 -- -- 77
2020-11-04 12:00:00 16.2 13 Sur 23 Sur 0 -- -- 85
2020-11-04 11:00:00 14.6 2 Este 15 Sur 1.6 -- -- 91
2020-11-04 10:00:00 14.1 12 Sur 26 Sur 0.6 -- -- 89
2020-11-04 09:00:00 14.2 14 Sur 25 Sur 0 -- -- 87
2020-11-04 08:00:00 13.8 9 Sur 22 Sur 0 -- -- 85
2020-11-04 07:00:00 14.3 19 Sur 37 Sudeste 0 -- -- 80
2020-11-04 06:00:00 14.3 16 Sur 26 Sur 0 -- -- 78
2020-11-04 05:00:00 14.2 19 Sur 28 Sur 0 -- -- 77
2020-11-04 04:00:00 14.1 14 Sur 28 Sur 0 -- -- 78
2020-11-04 03:00:00 13.9 17 Sur 28 Sur 0 -- -- 79
2020-11-04 02:00:00 14.5 18 Sur 31 Sur 0 -- -- 70
2020-11-04 01:00:00 14.5 12 Sur 19 Sur 0 -- -- 69
2020-11-04 00:00:00 15.2 13 Sudoeste 17 Sudoeste 0 -- -- 70
2020-11-03 23:00:00 15.7 4 Sur 7 Sur 0 -- -- 69
2020-11-03 22:00:00 16.3 0 Calma 6 Sudeste 0 -- -- 67
2020-11-03 21:00:00 17.2 4 Sudeste 6 Sudeste 0 -- -- 64
2020-11-03 20:00:00 18 0 Calma 10 Noroeste 0 -- -- 60
2020-11-03 19:00:00 18.9 10 Noroeste 13 Noroeste 0 -- -- 56
2020-11-03 18:00:00 21.2 10 Norte 20 Norte 0 -- -- 47
2020-11-03 17:00:00 22.7 14 Norte 22 Norte 0 -- -- 40
2020-11-03 16:00:00 24.6 12 Norte 20 Noroeste 0 -- -- 37
2020-11-03 15:00:00 24.5 10 Norte 23 Norte 0 -- -- 36
2020-11-03 14:00:00 25.5 5 Norte 14 Norte 0 -- -- 31
2020-11-03 13:00:00 24 3 Sudoeste 9 Sudoeste 0 -- -- 33
2020-11-03 12:00:00 21.1 4 Sudoeste 8 Oeste 0 -- -- 38
2020-11-03 11:00:00 17.5 3 Sudoeste 6 Sudoeste 0 -- -- 52
2020-11-03 10:00:00 14.1 2 Sudoeste 6 Sudeste 0 -- -- 62
2020-11-03 09:00:00 9.7 2 Sudeste 6 Noroeste 0 -- -- 83
2020-11-03 08:00:00 6.8 0 Calma 6 Sudeste 0 -- -- 87
2020-11-03 07:00:00 6.8 0 Calma 5 Oeste 0 -- -- 84
2020-11-03 06:00:00 7.9 2 Sur 5 Norte 0 -- -- 82
2020-11-03 05:00:00 8 3 Norte 7 Noroeste 0 -- -- 79
2020-11-03 04:00:00 8.3 2 Oeste 4 Sudeste 0 -- -- 75
2020-11-03 03:00:00 9.8 0 Calma 5 Noroeste 0 -- -- 72
2020-11-03 02:00:00 10 3 Sudoeste 5 Oeste 0 -- -- 70
2020-11-03 01:00:00 10.3 0 Calma 8 Noroeste 0 -- -- 68
2020-11-03 00:00:00 12.6 2 Sudeste 5 Sudeste 0 -- -- 58
2020-11-02 23:00:00 12.1 0 Calma 5 Noroeste 0 -- -- 62
2020-11-02 22:00:00 13.5 2 Sur 8 Sudeste 0 -- -- 56
2020-11-02 21:00:00 16.8 0 Calma 4 Sur 0 -- -- 41
2020-11-02 20:00:00 18.1 0 Calma 9 Sur 0 -- -- 38
2020-11-02 19:00:00 20 9 Sur 14 Sur 0 -- -- 33
2020-11-02 18:00:00 23.8 9 Sur 18 Sur 0 -- -- 26
2020-11-02 17:00:00 26.3 11 Sur 19 Sudeste 0 -- -- 24
2020-11-02 16:00:00 27.5 10 Sur 19 Sudeste 0 -- -- 22
2020-11-02 15:00:00 27.7 10 Sur 23 Sur 0 -- -- 23
2020-11-02 14:00:00 27 14 Sur 28 Sur 0 -- -- 22
2020-11-02 13:00:00 26.2 13 Sur 21 Sur 0 -- -- 27
2020-11-02 12:00:00 21.9 3 Sudoeste 8 Sudoeste 0 -- -- 43
2020-11-02 11:00:00 17.7 4 Sudoeste 6 Sudoeste 0 -- -- 56
2020-11-02 10:00:00 13.3 2 Sudoeste 6 Sudoeste 0 -- -- 68
2020-11-02 09:00:00 10.3 2 Sur 4 Sur 0 -- -- 84
2020-11-02 08:00:00 7.4 2 Sur 3 Sur 0 -- -- 89
2020-11-02 07:00:00 8.1 0 Calma 5 Sudeste 0 -- -- 89
2020-11-02 06:00:00 8.3 3 Sur 5 Sudeste 0 -- -- 86
2020-11-02 05:00:00 9.1 3 Sur 4 Sur 0 -- -- 82
2020-11-02 04:00:00 9.8 0 Calma 2 Sudeste 0 -- -- 82
2020-11-02 03:00:00 10.2 2 Sur 3 Sudeste 0 -- -- 82
2020-11-02 02:00:00 10.4 0 Calma 4 Sudoeste 0 -- -- 79
2020-11-02 01:00:00 11 0 Calma 4 Sudeste 0 -- -- 74
2020-11-02 00:00:00 12.1 3 Norte 6 Norte 0 -- -- 73
2020-11-01 23:00:00 13.7 2 Sur 4 Sur 0 -- -- 65
2020-11-01 22:00:00 14.3 0 Calma 8 Sur 0 -- -- 64
2020-11-01 21:00:00 16.9 2 Sur 7 Sur 0 -- -- 54
2020-11-01 20:00:00 20.4 2 Sur 9 Oeste 0 -- -- 38
2020-11-01 19:00:00 21.8 6 Sudoeste 12 Norte 0 -- -- 40
2020-11-01 18:00:00 24.1 8 Norte 11 Norte 0 -- -- 37
2020-11-01 17:00:00 26.8 2 Sudeste 9 Sudeste 0 -- -- 29
2020-11-01 16:00:00 27.2 3 Sudeste 10 Sudoeste 0 -- -- 26
2020-11-01 15:00:00 26.7 6 Sudoeste 12 Sudoeste 0 -- -- 29
2020-11-01 14:00:00 25.4 4 Oeste 10 Sudoeste 0 -- -- 32
2020-11-01 13:00:00 23.5 4 Sudoeste 10 Sudoeste 0 -- -- 43
2020-11-01 12:00:00 21.1 4 Sudoeste 8 Sudoeste 0 -- -- 48
2020-11-01 11:00:00 18.1 3 Oeste 5 Oeste 0 -- -- 59
2020-11-01 10:00:00 14.2 0 Calma 3 Noroeste 0 -- -- 76
2020-11-01 09:00:00 10 0 Calma 3 Sur 0 -- -- 90
2020-11-01 08:00:00 8.2 0 Calma 3 Sudeste 0 -- -- 91
2020-11-01 07:00:00 8 0 Calma 8 Norte 0 -- -- 91
2020-11-01 06:00:00 8.2 3 Oeste 5 Noroeste 0 -- -- 88
2020-11-01 05:00:00 9 0 Calma 4 Noroeste 0 -- -- 90
2020-11-01 04:00:00 9 2 Norte 6 Sudeste 0 -- -- 87
2020-11-01 03:00:00 9.5 0 Calma 5 Sur 0 -- -- 86
2020-11-01 02:00:00 11 4 Este 7 Sudeste 0 -- -- 84
2020-11-01 01:00:00 11.4 2 Oeste 4 Sudoeste 0 -- -- 80
2020-11-01 00:00:00 11.9 2 Oeste 6 Sudeste 0 -- -- 78
2020-10-31 23:00:00 12.7 5 Norte 6 Norte 0 -- -- 75
2020-10-31 22:00:00 14.4 3 Norte 6 Sudeste 0 -- -- 67
2020-10-31 21:00:00 16.5 3 Sudeste 10 Sudoeste 0 -- -- 60
2020-10-31 20:00:00 18.2 6 Norte 9 Norte 0 -- -- 53
2020-10-31 19:00:00 19.9 6 Norte 11 Norte 0 -- -- 48
2020-10-31 18:00:00 23.2 9 Norte 21 Noroeste 0 -- -- 39
2020-10-31 17:00:00 26 3 Oeste 11 Oeste 0 -- -- 27
2020-10-31 16:00:00 26 6 Oeste 15 Oeste 0 -- -- 27
2020-10-31 15:00:00 25.6 3 Este 10 Oeste 0 -- -- 27
2020-10-31 14:00:00 24.6 5 Sudoeste 9 Sudoeste 0 -- -- 30
2020-10-31 13:00:00 22.8 5 Sudoeste 9 Sudoeste 0 -- -- 33
2020-10-31 12:00:00 19.6 5 Oeste 8 Oeste 0 -- -- 48
2020-10-31 11:00:00 15.4 4 Oeste 9 Oeste 0 -- -- 63
2020-10-31 10:00:00 13.2 2 Sur 4 Sudeste 0 -- -- 77
2020-10-31 09:00:00 9.6 2 Nordeste 5 Sudeste 0 -- -- 84
2020-10-31 08:00:00 9.1 0 Calma 6 Norte 0 -- -- 86
2020-10-31 07:00:00 10.5 2 Nordeste 4 Oeste 0 -- -- 79
2020-10-31 06:00:00 10.5 2 Norte 7 Norte 0 -- -- 76
2020-10-31 05:00:00 11.6 4 Norte 6 Nordeste 0 -- -- 70
2020-10-31 04:00:00 14 4 Noroeste 19 Sur 0 -- -- 63
2020-10-31 03:00:00 12.8 6 Sudoeste 14 Sur 0 -- -- 69
2020-10-31 02:00:00 13.5 4 Sudoeste 9 Sur 0 -- -- 67
2020-10-31 01:00:00 12.7 3 Norte 7 Norte 0 -- -- 70
2020-10-31 00:00:00 13.3 4 Sudoeste 10 Sur 0 -- -- 68
2020-10-30 23:00:00 13 6 Sur 8 Sur 0 -- -- 70
2020-10-30 22:00:00 14.9 3 Oeste 9 Sudoeste 0 -- -- 61
2020-10-30 21:00:00 15.7 5 Sudoeste 7 Sudoeste 0 -- -- 57
2020-10-30 20:00:00 16.5 4 Sudoeste 13 Sudoeste 0 -- -- 56
2020-10-30 19:00:00 18.2 8 Oeste 15 Sur 0 -- -- 49
2020-10-30 18:00:00 19.7 6 Sur 24 Sur 0 -- -- 48
2020-10-30 17:00:00 22.7 13 Sur 30 Sur 0 -- -- 39
2020-10-30 16:00:00 23.7 21 Sur 33 Sur 0 -- -- 37
2020-10-30 15:00:00 23.8 22 Sur 36 Sur 0 -- -- 37
2020-10-30 14:00:00 23.6 23 Sur 36 Sur 0 -- -- 39
2020-10-30 13:00:00 23.3 23 Sur 37 Sur 0 -- -- 40
2020-10-30 12:00:00 22.3 25 Sur 34 Sur 0 -- -- 42
2020-10-30 11:00:00 20.9 23 Sur 32 Sur 0 -- -- 45
2020-10-30 10:00:00 19.1 18 Sur 28 Sur 0 -- -- 53
2020-10-30 09:00:00 15.8 19 Sur 25 Sur 0 -- -- 62
2020-10-30 08:00:00 10.6 3 Noroeste 13 Sudeste 0 -- -- 76
2020-10-30 07:00:00 12 5 Nordeste 14 Sur 0 -- -- 71
2020-10-30 06:00:00 13.2 17 Sur 23 Sur 0 -- -- 69
2020-10-30 05:00:00 14.7 17 Sur 26 Sur 0 -- -- 62
2020-10-30 04:00:00 15 20 Sur 28 Sudeste 0 -- -- 62
2020-10-30 03:00:00 15.2 17 Sur 27 Sur 0 -- -- 62
2020-10-30 02:00:00 14.7 17 Sur 27 Sudeste 0 -- -- 62
2020-10-30 01:00:00 14.2 2 Sur 13 Sur 0 -- -- 62
2020-10-30 00:00:00 13.6 0 Calma 11 Sur 0 -- -- 67
2020-10-29 23:00:00 15.4 5 Sudoeste 12 Sur 0 -- -- 61
2020-10-29 22:00:00 15.6 8 Sur 17 Sudoeste 0 -- -- 60
2020-10-29 21:00:00 16.5 11 Sudoeste 20 Sur 0 -- -- 57
2020-10-29 20:00:00 17.3 16 Sur 35 Sur 0 -- -- 53
2020-10-29 19:00:00 18.3 21 Sur 34 Sur 0 -- -- 46
2020-10-29 18:00:00 20.6 17 Sur 31 Sur 0 -- -- 40
2020-10-29 17:00:00 22.8 21 Sur 31 Sur 0 -- -- 34
2020-10-29 16:00:00 24.1 20 Sur 34 Sur 0 -- -- 30
2020-10-29 15:00:00 24.6 22 Sur 33 Sur 0 -- -- 29
2020-10-29 14:00:00 24.8 17 Sur 28 Sur 0 -- -- 30
2020-10-29 13:00:00 24.3 13 Sur 23 Sudoeste 0 -- -- 33
2020-10-29 12:00:00 22.5 12 Sur 22 Sur 0 -- -- 37
2020-10-29 11:00:00 16.7 2 Oeste 4 Oeste 0 -- -- 66
2020-10-29 10:00:00 12.7 0 Calma 4 Sudoeste 0 -- -- 80
2020-10-29 09:00:00 9.7 0 Calma 3 Sur 0 -- -- 92
2020-10-29 08:00:00 6.8 0 Calma 4 Sudoeste 0 -- -- 94
2020-10-29 07:00:00 6.7 2 Oeste 4 Este 0 -- -- 93
2020-10-29 06:00:00 7.7 3 Este 4 Sudeste 0 -- -- 92
2020-10-29 05:00:00 7.4 0 Calma 4 Noroeste 0 -- -- 92
2020-10-29 04:00:00 7.8 2 Sur 5 Norte 0 -- -- 92
2020-10-29 03:00:00 8.4 0 Calma 4 Oeste 0 -- -- 90
2020-10-29 02:00:00 9 0 Calma 3 Noroeste 0 -- -- 91
2020-10-29 01:00:00 9.7 0 Calma 3 Norte 0 -- -- 89
2020-10-29 00:00:00 10.2 3 Sur 4 Sur 0 -- -- 86
2020-10-28 23:00:00 11 3 Sudoeste 5 Sudoeste 0 -- -- 81
2020-10-28 22:00:00 12 0 Calma 6 Sudeste 0 -- -- 80
2020-10-28 21:00:00 13.4 3 Sur 6 Noroeste 0 -- -- 73
2020-10-28 20:00:00 15.3 0 Calma 3 Sudeste 0 -- -- 64
2020-10-28 19:00:00 17 2 Norte 10 Norte 0 -- -- 57
2020-10-28 18:00:00 18.9 7 Norte 19 Norte 0 -- -- 50
2020-10-28 17:00:00 20.1 13 Norte 21 Norte 0 -- -- 48
2020-10-28 16:00:00 20.6 13 Norte 19 Norte 0 -- -- 46
2020-10-28 15:00:00 21.1 11 Norte 20 Norte 0 -- -- 42
2020-10-28 14:00:00 20.8 6 Norte 14 Norte 0 -- -- 40
2020-10-28 13:00:00 19.4 5 Nordeste 13 Norte 0 -- -- 43
2020-10-28 12:00:00 17 4 Noroeste 9 Sudoeste 0 -- -- 51
2020-10-28 11:00:00 13.8 5 Sudoeste 9 Sudoeste 0 -- -- 65
2020-10-28 10:00:00 10.1 0 Calma 4 Sudoeste 0 -- -- 78
2020-10-28 09:00:00 7.5 0 Calma 3 Sudeste 0 -- -- 91
2020-10-28 08:00:00 5 0 Calma 2 Sudoeste 0 -- -- 92
2020-10-28 07:00:00 4.8 0 Calma 4 Sur 0 -- -- 91
2020-10-28 06:00:00 5.6 2 Nordeste 2 Nordeste 0 -- -- 91
2020-10-28 05:00:00 5.7 0 Calma 4 Sudeste 0 -- -- 90
2020-10-28 04:00:00 6 0 Calma 5 Noroeste 0 -- -- 89
2020-10-28 03:00:00 7 2 Sur 4 Sur 0 -- -- 88
2020-10-28 02:00:00 7.1 0 Calma 3 Oeste 0 -- -- 85
2020-10-28 01:00:00 8.1 0 Calma 8 Sudeste 0 -- -- 82
2020-10-28 00:00:00 8.5 3 Noroeste 5 Sudoeste 0 -- -- 80
2020-10-27 23:00:00 9.4 3 Sur 5 Sudeste 0 -- -- 75
2020-10-27 22:00:00 10.1 0 Calma 5 Norte 0 -- -- 70
2020-10-27 21:00:00 10.6 4 Nordeste 6 Norte 0 -- -- 69
2020-10-27 20:00:00 11.8 3 Nordeste 9 Norte 0 -- -- 61
2020-10-27 19:00:00 13.2 6 Norte 16 Norte 0 -- -- 55
2020-10-27 18:00:00 15.8 13 Norte 24 Norte 0 -- -- 45
2020-10-27 17:00:00 17.2 14 Norte 23 Norte 0 -- -- 42
2020-10-27 16:00:00 17.6 10 Norte 21 Norte 0 -- -- 37
2020-10-27 15:00:00 17.2 11 Norte 20 Noroeste 0 -- -- 41
2020-10-27 14:00:00 16.9 10 Norte 20 Norte 0 -- -- 45
2020-10-27 13:00:00 16.2 8 Norte 18 Norte 0 -- -- 46
2020-10-27 12:00:00 15.5 5 Este 13 Nordeste 0 -- -- 53
2020-10-27 11:00:00 11.9 3 Oeste 6 Sudoeste 0 -- -- 70
2020-10-27 10:00:00 8.4 3 Sudoeste 5 Sudoeste 0 -- -- 83
2020-10-27 09:00:00 5.5 0 Calma 6 Sudoeste 0 -- -- 94
2020-10-27 08:00:00 3.4 5 Sudoeste 7 Sur 0 -- -- 94
2020-10-27 07:00:00 3 2 Sudeste 6 Norte 0 -- -- 92
2020-10-27 06:00:00 3.8 3 Norte 5 Norte 0 -- -- 91
2020-10-27 05:00:00 4.5 2 Sur 4 Sudeste 0 -- -- 91
2020-10-27 04:00:00 5.3 0 Calma 3 Oeste 0 -- -- 91
2020-10-27 03:00:00 5.6 2 Sur 10 Sudoeste 0 -- -- 88
2020-10-27 02:00:00 6.9 0 Calma 4 Sur 0 -- -- 85
2020-10-27 01:00:00 7.2 3 Sudoeste 7 Sudoeste 0 -- -- 83
2020-10-27 00:00:00 8.5 8 Nordeste 9 Nordeste 0 -- -- 76